createdAt,value
2018-02-24T00:00:15.189Z,62.81
2018-02-24T00:00:55.740Z,63.19
2018-02-24T00:01:36.331Z,63.1
2018-02-24T00:02:16.874Z,62.81
2018-02-24T00:02:57.402Z,63.29
2018-02-24T00:03:37.960Z,63.1
2018-02-24T00:04:18.484Z,62.72
2018-02-24T00:04:59.050Z,63.1
2018-02-24T00:05:39.610Z,63.29
2018-02-24T00:06:20.151Z,63.1
2018-02-24T00:07:00.721Z,63.1
2018-02-24T00:07:41.345Z,63.67
2018-02-24T00:08:21.922Z,63.48
2018-02-24T00:09:02.533Z,63.48
2018-02-24T00:09:43.072Z,63.48
2018-02-24T00:10:23.620Z,63.57
2018-02-24T00:11:04.151Z,63.48
2018-02-24T00:11:44.771Z,63.29
2018-02-24T00:12:25.332Z,63.67
2018-02-24T00:13:05.915Z,63.48
2018-02-24T00:13:46.456Z,63.29
2018-02-24T00:14:27.053Z,63.57
2018-02-24T00:15:07.780Z,63.48
2018-02-24T00:15:48.331Z,63.29
2018-02-24T00:16:28.876Z,63.19
2018-02-24T00:17:09.423Z,63.48
2018-02-24T00:17:50.021Z,63.85
2018-02-24T00:18:30.539Z,63.76
2018-02-24T00:19:11.071Z,63.95
2018-02-24T00:19:51.654Z,63.95
2018-02-24T00:20:32.251Z,64.14
2018-02-24T00:21:12.766Z,63.95
2018-02-24T00:21:53.323Z,63.85
2018-02-24T00:22:33.849Z,63.67
2018-02-24T00:23:14.393Z,64.51
2018-02-24T00:23:54.947Z,64.51
2018-02-24T00:24:35.528Z,64.7
2018-02-24T00:25:16.180Z,64.51
2018-02-24T00:25:56.731Z,64.23
2018-02-24T00:26:37.293Z,64.23
2018-02-24T00:27:17.849Z,64.51
2018-02-24T00:27:58.409Z,64.32
2018-02-24T00:28:38.960Z,64.51
2018-02-24T00:29:19.607Z,64.51
2018-02-24T00:30:00.188Z,64.51
2018-02-24T00:30:40.941Z,64.42
2018-02-24T00:31:21.511Z,64.32
2018-02-24T00:32:02.053Z,64.61
2018-02-24T00:32:42.592Z,64.98
2018-02-24T00:33:23.140Z,64.98
2018-02-24T00:34:03.732Z,64.98
2018-02-24T00:34:44.256Z,64.7
2018-02-24T00:35:24.943Z,64.98
2018-02-24T00:36:05.427Z,64.98
2018-02-24T00:36:45.968Z,64.98
2018-02-24T00:37:26.531Z,65.08
2018-02-24T00:38:07.087Z,64.61
2018-02-24T00:38:47.620Z,64.79
2018-02-24T00:39:28.160Z,64.61
2018-02-24T00:40:08.726Z,64.7
2018-02-24T00:40:49.283Z,64.89
2018-02-24T00:41:29.865Z,64.32
2018-02-24T00:42:10.421Z,64.79
2018-02-24T00:42:50.996Z,64.7
2018-02-24T00:43:31.543Z,64.61
2018-02-24T00:44:12.097Z,64.32
2018-02-24T00:44:52.649Z,64.42
2018-02-24T00:45:33.207Z,64.42
2018-02-24T00:46:13.757Z,64.32
2018-02-24T00:46:54.285Z,64.7
2018-02-24T00:47:34.849Z,64.61
2018-02-24T00:48:15.407Z,64.61
2018-02-24T00:48:55.962Z,64.51
2018-02-24T00:49:36.511Z,64.64
2018-02-24T00:50:17.069Z,64.64
2018-02-24T00:50:57.604Z,64.64
2018-02-24T00:51:38.178Z,64.73
2018-02-24T00:52:18.715Z,64.17
2018-02-24T00:52:59.309Z,64.17
2018-02-24T00:53:39.780Z,64.07
2018-02-24T00:54:20.331Z,64.17
2018-02-24T00:55:01.113Z,64.17
2018-02-24T00:55:41.664Z,63.6
2018-02-24T00:56:22.204Z,63.89
2018-02-24T00:57:02.756Z,63.89
2018-02-24T00:57:43.336Z,63.7
2018-02-24T00:58:23.865Z,64.26
2018-02-24T00:59:04.421Z,64.17
2018-02-24T00:59:45.020Z,63.98
2018-02-24T01:00:25.542Z,63.89
2018-02-24T01:01:06.089Z,63.98
2018-02-24T01:01:46.640Z,63.89
2018-02-24T01:02:27.190Z,63.98
2018-02-24T01:03:07.774Z,64.07
2018-02-24T01:03:48.322Z,64.07
2018-02-24T01:04:28.851Z,63.98
2018-02-24T01:05:09.416Z,64.07
2018-02-24T01:05:49.966Z,63.89
2018-02-24T01:06:30.518Z,63.89
2018-02-24T01:07:11.111Z,63.98
2018-02-24T01:07:51.640Z,64.17
2018-02-24T01:08:32.228Z,64.26
2018-02-24T01:09:12.758Z,64.07
2018-02-24T01:09:53.318Z,64.17
2018-02-24T01:10:33.856Z,63.89
2018-02-24T01:11:14.404Z,63.98
2018-02-24T01:11:54.960Z,64.07
2018-02-24T01:12:35.582Z,63.89
2018-02-24T01:13:16.192Z,63.79
2018-02-24T01:13:56.700Z,64.07
2018-02-24T01:14:37.303Z,64.17
2018-02-24T01:15:17.855Z,64.17
2018-02-24T01:15:58.404Z,64.17
2018-02-24T01:16:38.944Z,63.89
2018-02-24T01:17:19.506Z,63.98
2018-02-24T01:18:00.063Z,63.98
2018-02-24T01:18:40.605Z,64.07
2018-02-24T01:19:21.196Z,63.89
2018-02-24T01:20:01.758Z,63.89
2018-02-24T01:20:42.324Z,64.07
2018-02-24T01:21:22.877Z,63.89
2018-02-24T01:22:03.455Z,63.89
2018-02-24T01:22:43.979Z,63.89
2018-02-24T01:23:24.529Z,63.98
2018-02-24T01:24:05.078Z,63.98
2018-02-24T01:24:45.647Z,63.98
2018-02-24T01:25:26.309Z,64.07
2018-02-24T01:26:06.853Z,63.79
2018-02-24T01:26:47.394Z,63.89
2018-02-24T01:27:27.963Z,63.98
2018-02-24T01:28:08.477Z,63.89
2018-02-24T01:28:49.081Z,63.6
2018-02-24T01:29:29.667Z,63.6
2018-02-24T01:30:10.234Z,64.36
2018-02-24T01:30:50.773Z,64.26
2018-02-24T01:31:31.334Z,64.54
2018-02-24T01:32:11.878Z,64.64
2018-02-24T01:32:52.408Z,64.64
2018-02-24T01:33:32.971Z,64.54
2018-02-24T01:34:13.513Z,64.26
2018-02-24T01:34:54.059Z,64.42
2018-02-24T01:35:34.630Z,64.26
2018-02-24T01:36:15.231Z,64.26
2018-02-24T01:36:55.805Z,64.45
2018-02-24T01:37:36.395Z,64.36
2018-02-24T01:38:16.933Z,64.92
2018-02-24T01:38:57.488Z,64.51
2018-02-24T01:39:38.032Z,64.73
2018-02-24T01:40:18.588Z,65.02
2018-02-24T01:40:59.154Z,65.02
2018-02-24T01:41:39.725Z,65.02
2018-02-24T01:42:20.283Z,64.73
2018-02-24T01:43:00.858Z,65.11
2018-02-24T01:43:41.409Z,65.21
2018-02-24T01:44:21.952Z,65.02
2018-02-24T01:45:02.569Z,65.3
2018-02-24T01:45:43.050Z,65.11
2018-02-24T01:46:23.610Z,65.02
2018-02-24T01:47:04.152Z,65.3
2018-02-24T01:47:44.720Z,65.4
2018-02-24T01:48:25.254Z,65.21
2018-02-24T01:49:05.791Z,65.4
2018-02-24T01:49:46.342Z,65.49
2018-02-24T01:50:26.951Z,65.49
2018-02-24T01:51:07.502Z,65.49
2018-02-24T01:51:48.018Z,65.68
2018-02-24T01:52:28.563Z,65.49
2018-02-24T01:53:09.094Z,65.68
2018-02-24T01:53:49.640Z,65.21
2018-02-24T01:54:30.272Z,65.3
2018-02-24T01:55:10.792Z,65.59
2018-02-24T01:55:51.361Z,65.59
2018-02-24T01:56:31.877Z,65.68
2018-02-24T01:57:12.411Z,65.59
2018-02-24T01:57:52.975Z,65.3
2018-02-24T01:58:33.484Z,65.11
2018-02-24T01:59:14.019Z,65.11
2018-02-24T01:59:54.582Z,65.21
2018-02-24T02:00:35.151Z,64.92
2018-02-24T02:01:15.723Z,65.4
2018-02-24T02:01:56.293Z,65.59
2018-02-24T02:02:36.862Z,65.02
2018-02-24T02:03:17.430Z,65.21
2018-02-24T02:03:57.930Z,65.3
2018-02-24T02:04:38.477Z,65.21
2018-02-24T02:05:19.037Z,65.4
2018-02-24T02:05:59.576Z,65.49
2018-02-24T02:06:40.141Z,65.4
2018-02-24T02:07:20.698Z,65.4
2018-02-24T02:08:01.254Z,65.59
2018-02-24T02:08:41.794Z,65.11
2018-02-24T02:09:22.350Z,65.49
2018-02-24T02:10:02.880Z,65.4
2018-02-24T02:10:43.472Z,65.4
2018-02-24T02:11:24.014Z,65.11
2018-02-24T02:12:04.544Z,65.4
2018-02-24T02:12:45.111Z,65.4
2018-02-24T02:13:25.656Z,65.3
2018-02-24T02:14:06.255Z,65.3
2018-02-24T02:14:46.811Z,65.59
2018-02-24T02:15:27.360Z,65.4
2018-02-24T02:16:07.958Z,65.3
2018-02-24T02:16:48.515Z,65.11
2018-02-24T02:17:29.099Z,64.73
2018-02-24T02:18:09.687Z,64.73
2018-02-24T02:18:50.223Z,64.83
2018-02-24T02:19:30.814Z,64.36
2018-02-24T02:20:11.350Z,64.45
2018-02-24T02:20:51.900Z,64.36
2018-02-24T02:21:32.455Z,64.45
2018-02-24T02:22:13.008Z,64.73
2018-02-24T02:22:53.578Z,64.73
2018-02-24T02:23:34.120Z,63.6
2018-02-24T02:24:14.676Z,63.98
2018-02-24T02:24:55.257Z,64.07
2018-02-24T02:25:35.807Z,64.17
2018-02-24T02:26:16.348Z,64.17
2018-02-24T02:26:56.938Z,63.89
2018-02-24T02:27:37.579Z,64.07
2018-02-24T02:28:18.055Z,63.98
2018-02-24T02:28:58.609Z,63.89
2018-02-24T02:29:39.186Z,64.17
2018-02-24T02:30:19.763Z,64.17
2018-02-24T02:31:00.347Z,63.79
2018-02-24T02:31:40.971Z,63.6
2018-02-24T02:32:21.539Z,63.32
2018-02-24T02:33:02.097Z,63.42
2018-02-24T02:33:42.667Z,63.51
2018-02-24T02:34:23.223Z,63.42
2018-02-24T02:35:03.796Z,63.32
2018-02-24T02:35:44.355Z,63.79
2018-02-24T02:36:24.917Z,63.42
2018-02-24T02:37:05.467Z,63.6
2018-02-24T02:37:46.029Z,63.32
2018-02-24T02:38:26.589Z,62.94
2018-02-24T02:39:07.146Z,63.23
2018-02-24T02:39:47.692Z,63.6
2018-02-24T02:40:28.251Z,63.51
2018-02-24T02:41:08.818Z,63.6
2018-02-24T02:41:49.387Z,63.23
2018-02-24T02:42:29.930Z,63.13
2018-02-24T02:43:10.502Z,63.23
2018-02-24T02:43:51.056Z,63.16
2018-02-24T02:44:31.703Z,63.07
2018-02-24T02:45:12.267Z,62.94
2018-02-24T02:45:52.858Z,63.04
2018-02-24T02:46:33.404Z,62.94
2018-02-24T02:47:13.984Z,62.88
2018-02-24T02:47:54.577Z,63.23
2018-02-24T02:48:35.122Z,63.32
2018-02-24T02:49:15.729Z,63.6
2018-02-24T02:49:56.378Z,63.42
2018-02-24T02:50:36.910Z,63.6
2018-02-24T02:51:17.473Z,63.6
2018-02-24T02:51:58.023Z,63.6
2018-02-24T02:52:38.569Z,63.64
2018-02-24T02:53:19.136Z,63.32
2018-02-24T02:53:59.691Z,63.6
2018-02-24T02:54:40.293Z,63.32
2018-02-24T02:55:20.875Z,63.42
2018-02-24T02:56:01.451Z,63.7
2018-02-24T02:56:42.000Z,63.42
2018-02-24T02:57:22.558Z,63.23
2018-02-24T02:58:03.125Z,63.51
2018-02-24T02:58:43.680Z,63.6
2018-02-24T02:59:24.228Z,63.51
2018-02-24T03:00:04.768Z,63.32
2018-02-24T03:00:45.322Z,63.6
2018-02-24T03:01:25.862Z,63.23
2018-02-24T03:02:06.439Z,63.23
2018-02-24T03:02:47.004Z,63.7
2018-02-24T03:03:27.590Z,63.51
2018-02-24T03:04:08.195Z,63.51
2018-02-24T03:04:48.684Z,63.51
2018-02-24T03:05:29.233Z,63.6
2018-02-24T03:06:09.793Z,63.6
2018-02-24T03:06:50.405Z,63.6
2018-02-24T03:07:30.940Z,63.89
2018-02-24T03:08:11.496Z,63.79
2018-02-24T03:08:52.074Z,63.98
2018-02-24T03:09:32.604Z,63.89
2018-02-24T03:10:13.169Z,63.6
2018-02-24T03:10:53.708Z,63.6
2018-02-24T03:11:34.245Z,63.32
2018-02-24T03:12:14.766Z,63.6
2018-02-24T03:12:55.381Z,63.6
2018-02-24T03:13:35.969Z,63.51
2018-02-24T03:14:16.523Z,63.32
2018-02-24T03:14:57.058Z,63.32
2018-02-24T03:15:37.605Z,63.6
2018-02-24T03:16:18.168Z,63.51
2018-02-24T03:16:58.728Z,63.32
2018-02-24T03:17:39.293Z,63.42
2018-02-24T03:18:19.839Z,63.42
2018-02-24T03:19:00.389Z,63.51
2018-02-24T03:19:40.940Z,63.79
2018-02-24T03:20:21.469Z,63.7
2018-02-24T03:21:02.086Z,63.42
2018-02-24T03:21:42.646Z,63.6
2018-02-24T03:22:23.190Z,63.42
2018-02-24T03:23:03.728Z,63.32
2018-02-24T03:23:44.288Z,63.6
2018-02-24T03:24:24.877Z,63.51
2018-02-24T03:25:05.420Z,63.51
2018-02-24T03:25:45.964Z,63.23
2018-02-24T03:26:26.501Z,63.51
2018-02-24T03:27:07.061Z,63.6
2018-02-24T03:27:47.609Z,63.42
2018-02-24T03:28:28.178Z,63.89
2018-02-24T03:29:08.707Z,63.6
2018-02-24T03:29:49.290Z,63.42
2018-02-24T03:30:29.824Z,63.6
2018-02-24T03:31:10.474Z,63.6
2018-02-24T03:31:51.040Z,63.42
2018-02-24T03:32:31.578Z,63.51
2018-02-24T03:33:12.137Z,63.51
2018-02-24T03:33:52.706Z,63.54
2018-02-24T03:34:33.261Z,63.51
2018-02-24T03:35:13.794Z,63.42
2018-02-24T03:35:54.340Z,63.35
2018-02-24T03:36:34.867Z,63.79
2018-02-24T03:37:15.457Z,63.32
2018-02-24T03:37:55.988Z,63.32
2018-02-24T03:39:48.547Z,63.51
2018-02-24T03:40:29.106Z,63.45
2018-02-24T03:41:09.681Z,63.51
2018-02-24T03:41:50.201Z,63.6
2018-02-24T03:42:30.760Z,63.64
2018-02-24T03:43:11.326Z,63.45
2018-02-24T03:43:51.866Z,63.7
2018-02-24T03:44:32.427Z,63.51
2018-02-24T03:45:12.972Z,63.98
2018-02-24T03:45:53.527Z,64.01
2018-02-24T03:46:34.096Z,63.98
2018-02-24T03:47:14.663Z,64.26
2018-02-24T03:47:55.224Z,63.98
2018-02-24T03:48:35.750Z,64.07
2018-02-24T03:49:16.295Z,63.98
2018-02-24T03:49:56.839Z,64.17
2018-02-24T03:50:37.447Z,64.17
2018-02-24T03:51:18.003Z,64.2
2018-02-24T03:51:58.565Z,64.29
2018-02-24T03:52:39.120Z,64.67
2018-02-24T03:53:19.667Z,64.67
2018-02-24T03:54:00.249Z,64.58
2018-02-24T03:54:40.835Z,64.48
2018-02-24T03:55:21.397Z,64.48
2018-02-24T03:56:01.962Z,64.67
2018-02-24T03:56:42.514Z,64.96
2018-02-24T03:57:23.069Z,64.58
2018-02-24T03:58:03.625Z,65.05
2018-02-24T03:58:44.195Z,64.77
2018-02-24T03:59:24.741Z,64.96
2018-02-24T04:00:05.319Z,65.24
2018-02-24T04:00:45.865Z,65.15
2018-02-24T04:01:26.497Z,64.96
2018-02-24T04:02:07.053Z,65.15
2018-02-24T04:02:47.616Z,65.34
2018-02-24T04:03:28.150Z,65.62
2018-02-24T04:04:08.739Z,65.53
2018-02-24T04:04:49.289Z,65.62
2018-02-24T04:05:29.889Z,65.24
2018-02-24T04:06:10.411Z,65.34
2018-02-24T04:06:50.961Z,65.15
2018-02-24T04:07:31.522Z,65.62
2018-02-24T04:08:12.070Z,65.81
2018-02-24T04:08:52.626Z,65.91
2018-02-24T04:09:33.181Z,65.91
2018-02-24T04:10:13.743Z,65.81
2018-02-24T04:10:54.357Z,65.81
2018-02-24T04:11:34.883Z,65.72
2018-02-24T04:12:15.431Z,65.81
2018-02-24T04:12:55.963Z,65.72
2018-02-24T04:13:36.524Z,66.38
2018-02-24T04:14:17.073Z,66.56
2018-02-24T04:14:57.619Z,66.09
2018-02-24T04:15:38.133Z,66.09
2018-02-24T04:16:18.671Z,66.28
2018-02-24T04:16:59.218Z,66.47
2018-02-24T04:17:39.764Z,66.56
2018-02-24T04:18:20.313Z,66.66
2018-02-24T04:19:00.877Z,66.56
2018-02-24T04:19:41.447Z,66.85
2018-02-24T04:20:21.990Z,66.75
2018-02-24T04:21:02.527Z,66.85
2018-02-24T04:21:43.094Z,67.03
2018-02-24T04:22:23.611Z,67.13
2018-02-24T04:23:04.197Z,67.22
2018-02-24T04:23:44.783Z,67.32
2018-02-24T04:24:25.329Z,67.22
2018-02-24T04:25:05.897Z,67.22
2018-02-24T04:25:46.470Z,67.41
2018-02-24T04:26:27.005Z,68.17
2018-02-24T04:27:07.542Z,67.98
2018-02-24T04:27:48.106Z,68.36
2018-02-24T04:28:28.653Z,68.27
2018-02-24T04:29:09.226Z,68.36
2018-02-24T04:29:49.774Z,68.36
2018-02-24T04:30:30.319Z,69.02
2018-02-24T04:31:10.842Z,68.93
2018-02-24T04:31:51.476Z,69.59
2018-02-24T04:32:32.020Z,70.06
2018-02-24T04:33:12.550Z,70.16
2018-02-24T04:33:53.081Z,70.63
2018-02-24T04:34:33.687Z,70.82
2018-02-24T04:35:14.257Z,71.11
2018-02-24T04:35:54.815Z,71.3
2018-02-24T04:36:35.641Z,71.01
2018-02-24T04:37:16.218Z,71.3
2018-02-24T04:37:56.789Z,71.54
2018-02-24T04:38:37.321Z,71.58
2018-02-24T04:39:17.919Z,72.05
2018-02-24T04:39:58.459Z,71.86
2018-02-24T04:40:39.069Z,72.14
2018-02-24T04:41:19.563Z,71.64
2018-02-24T04:42:00.137Z,72.14
2018-02-24T04:42:40.697Z,72.02
2018-02-24T04:43:21.270Z,72.05
2018-02-24T04:44:01.842Z,71.95
2018-02-24T04:44:42.400Z,71.95
2018-02-24T04:45:23.011Z,71.95
2018-02-24T04:46:03.544Z,72.24
2018-02-24T04:46:44.131Z,72.52
2018-02-24T04:47:24.698Z,72.14
2018-02-24T04:48:05.261Z,72.43
2018-02-24T04:48:45.808Z,72.3
2018-02-24T04:49:26.352Z,72.33
2018-02-24T04:50:06.915Z,72.52
2018-02-24T04:50:47.465Z,72.43
2018-02-24T04:51:28.010Z,72.52
2018-02-24T04:52:08.554Z,72.52
2018-02-24T04:52:49.101Z,72.71
2018-02-24T04:53:29.673Z,72.49
2018-02-24T04:54:10.209Z,72.8
2018-02-24T04:54:50.796Z,72.8
2018-02-24T04:55:31.363Z,73.18
2018-02-24T04:56:11.880Z,72.77
2018-02-24T04:56:52.484Z,73.14
2018-02-24T04:57:33.026Z,73.47
2018-02-24T04:58:13.591Z,73.18
2018-02-24T04:58:54.142Z,73.43
2018-02-24T04:59:34.678Z,73.43
2018-02-24T05:00:15.251Z,73.66
2018-02-24T05:00:55.789Z,73.18
2018-02-24T05:01:36.399Z,73.33
2018-02-24T05:02:16.878Z,73.71
2018-02-24T05:02:57.445Z,74.09
2018-02-24T05:03:37.966Z,74.13
2018-02-24T05:04:18.506Z,73.75
2018-02-24T05:04:59.048Z,74.32
2018-02-24T05:05:39.604Z,74.38
2018-02-24T05:06:20.180Z,74.66
2018-02-24T05:07:00.729Z,75.17
2018-02-24T05:07:41.295Z,75.13
2018-02-24T05:08:21.840Z,75.42
2018-02-24T05:09:02.363Z,75.23
2018-02-24T05:09:42.906Z,75.23
2018-02-24T05:10:23.431Z,75.23
2018-02-24T05:11:04.024Z,75.79
2018-02-24T05:11:44.554Z,75.42
2018-02-24T05:12:25.107Z,75.55
2018-02-24T05:13:05.703Z,75.51
2018-02-24T05:13:46.249Z,75.6
2018-02-24T05:14:26.903Z,76.17
2018-02-24T05:15:07.455Z,75.89
2018-02-24T05:15:47.995Z,75.89
2018-02-24T05:16:28.560Z,75.79
2018-02-24T05:17:09.137Z,76.17
2018-02-24T05:17:49.676Z,76.17
2018-02-24T05:18:30.236Z,76.45
2018-02-24T05:19:10.773Z,76.26
2018-02-24T05:19:51.335Z,76.59
2018-02-24T05:20:31.845Z,76.36
2018-02-24T05:21:12.428Z,76.64
2018-02-24T05:21:52.956Z,76.83
2018-02-24T05:22:33.543Z,76.93
2018-02-24T05:23:14.102Z,76.55
2018-02-24T05:23:54.647Z,76.74
2018-02-24T05:24:35.183Z,77.02
2018-02-24T05:25:15.788Z,77.02
2018-02-24T05:25:56.364Z,76.93
2018-02-24T05:26:36.925Z,77.4
2018-02-24T05:27:17.492Z,77.5
2018-02-24T05:27:58.050Z,77.59
2018-02-24T05:28:38.603Z,77.69
2018-02-24T05:29:19.153Z,77.69
2018-02-24T05:29:59.755Z,77.78
2018-02-24T05:30:40.314Z,77.87
2018-02-24T05:31:20.874Z,78.16
2018-02-24T05:32:01.442Z,78.16
2018-02-24T05:32:42.009Z,77.97
2018-02-24T05:33:22.581Z,78.16
2018-02-24T05:34:03.135Z,78.16
2018-02-24T05:34:43.738Z,77.97
2018-02-24T05:35:24.315Z,78.16
2018-02-24T05:36:04.889Z,77.87
2018-02-24T05:36:45.438Z,78.16
2018-02-24T05:37:26.001Z,78.16
2018-02-24T05:38:06.576Z,78.06
2018-02-24T05:38:47.164Z,78.06
2018-02-24T05:39:27.778Z,78.25
2018-02-24T05:40:08.344Z,78.25
2018-02-24T05:40:49.048Z,77.87
2018-02-24T05:41:29.736Z,77.87
2018-02-24T05:42:10.311Z,78.16
2018-02-24T05:42:50.914Z,77.97
2018-02-24T05:43:31.519Z,77.97
2018-02-24T05:44:12.095Z,78.34
2018-02-24T05:44:52.720Z,78.16
2018-02-24T05:45:33.275Z,78.25
2018-02-24T05:46:13.837Z,78.16
2018-02-24T05:46:54.392Z,77.97
2018-02-24T05:47:34.931Z,78.16
2018-02-24T05:48:15.485Z,77.97
2018-02-24T05:48:56.043Z,78.06
2018-02-24T05:49:36.612Z,77.97
2018-02-24T05:50:17.163Z,78.06
2018-02-24T05:50:57.723Z,78.16
2018-02-24T05:51:38.276Z,77.87
2018-02-24T05:52:18.839Z,77.87
2018-02-24T05:52:59.404Z,77.87
2018-02-24T05:53:39.950Z,77.87
2018-02-24T05:54:20.523Z,78.44
2018-02-24T05:55:01.157Z,77.97
2018-02-24T05:55:41.775Z,78.44
2018-02-24T05:56:22.315Z,78.53
2018-02-24T05:57:02.852Z,78.63
2018-02-24T05:57:43.408Z,78.72
2018-02-24T05:58:23.973Z,78.34
2018-02-24T05:59:04.536Z,78.63
2018-02-24T05:59:45.090Z,78.63
2018-02-24T06:00:25.635Z,78.63
2018-02-24T06:01:06.212Z,78.81
2018-02-24T06:01:46.735Z,78.53
2018-02-24T06:02:27.318Z,78.81
2018-02-24T06:03:07.881Z,78.63
2018-02-24T06:03:48.434Z,78.44
2018-02-24T06:04:28.963Z,78.44
2018-02-24T06:05:09.535Z,78.34
2018-02-24T06:09:01.033Z,78.72
2018-02-24T06:09:41.590Z,78.44
2018-02-24T06:10:22.133Z,78.44
2018-02-24T06:11:02.658Z,78.72
2018-02-24T06:11:43.209Z,78.44
2018-02-24T06:12:23.756Z,78.44
2018-02-24T06:13:04.330Z,78.06
2018-02-24T06:13:44.881Z,78.06
2018-02-24T06:14:25.450Z,78.25
2018-02-24T06:15:06.021Z,78.34
2018-02-24T06:15:46.573Z,78.25
2018-02-24T06:16:27.161Z,78.16
2018-02-24T06:17:07.708Z,77.59
2018-02-24T06:17:48.243Z,77.69
2018-02-24T06:18:28.807Z,77.69
2018-02-24T06:19:09.359Z,77.59
2018-02-24T06:19:49.929Z,77.59
2018-02-24T06:20:30.521Z,77.5
2018-02-24T06:21:11.080Z,77.4
2018-02-24T06:21:51.617Z,77.59
2018-02-24T06:22:32.136Z,77.31
2018-02-24T06:23:12.687Z,77.5
2018-02-24T06:23:53.236Z,76.55
2018-02-24T06:24:33.787Z,76.93
2018-02-24T06:25:14.355Z,76.17
2018-02-24T06:25:54.915Z,76.45
2018-02-24T06:26:35.522Z,75.98
2018-02-24T06:27:16.108Z,75.7
2018-02-24T06:27:56.837Z,75.6
2018-02-24T06:28:37.470Z,75.6
2018-02-24T06:29:18.184Z,75.7
2018-02-24T06:29:58.722Z,75.51
2018-02-24T06:30:39.428Z,75.13
2018-02-24T06:31:20.092Z,75.51
2018-02-24T06:32:00.655Z,74.66
2018-02-24T06:32:41.218Z,74.57
2018-02-24T06:33:22.157Z,74.76
2018-02-24T06:34:02.724Z,74.66
2018-02-24T06:34:43.258Z,74.66
2018-02-24T06:35:23.843Z,74.66
2018-02-24T06:36:04.418Z,74.66
2018-02-24T06:36:45.002Z,74.66
2018-02-24T06:37:25.584Z,74.76
2018-02-24T06:38:06.121Z,74.47
2018-02-24T06:38:46.688Z,74.19
2018-02-24T06:39:27.413Z,74.19
2018-02-24T06:40:07.964Z,74.28
2018-02-24T06:40:48.514Z,74.19
2018-02-24T06:41:29.100Z,74.19
2018-02-24T06:42:09.691Z,74.19
2018-02-24T06:42:50.276Z,74.09
2018-02-24T06:43:30.856Z,74
2018-02-24T06:44:11.465Z,74.28
2018-02-24T06:44:52.016Z,74.38
2018-02-24T06:45:32.706Z,73.9
2018-02-24T06:46:13.272Z,74
2018-02-24T06:46:53.839Z,74.19
2018-02-24T06:47:34.393Z,74.28
2018-02-24T06:48:14.957Z,74.47
2018-02-24T06:48:55.514Z,74.47
2018-02-24T06:49:36.119Z,74.76
2018-02-24T06:50:16.711Z,74.66
2018-02-24T06:50:57.289Z,74.66
2018-02-24T06:51:37.858Z,74.85
2018-02-24T06:52:18.472Z,74.38
2018-02-24T06:52:59.037Z,74.19
2018-02-24T06:53:39.666Z,74.38
2018-02-24T06:54:20.232Z,74.38
2018-02-24T06:55:00.821Z,74.19
2018-02-24T06:55:41.442Z,74.09
2018-02-24T06:56:22.035Z,74.47
2018-02-24T06:57:02.594Z,74.19
2018-02-24T06:57:43.182Z,74.28
2018-02-24T06:58:23.788Z,74.38
2018-02-24T06:59:04.322Z,74.09
2018-02-24T06:59:44.930Z,73.71
2018-02-24T07:00:25.483Z,73.52
2018-02-24T07:01:06.061Z,73.43
2018-02-24T07:01:46.650Z,73.43
2018-02-24T07:02:27.186Z,73.24
2018-02-24T07:03:07.770Z,73.24
2018-02-24T07:03:48.340Z,72.96
2018-02-24T07:04:28.897Z,72.2
2018-02-24T07:05:09.440Z,71.73
2018-02-24T07:05:49.994Z,72.02
2018-02-24T07:06:30.607Z,72.02
2018-02-24T07:07:11.209Z,72.02
2018-02-24T07:07:51.753Z,71.64
2018-02-24T07:08:32.337Z,71.64
2018-02-24T07:09:12.901Z,71.54
2018-02-24T07:09:53.475Z,71.26
2018-02-24T07:10:34.044Z,71.64
2018-02-24T07:11:14.614Z,71.54
2018-02-24T07:11:55.172Z,70.97
2018-02-24T07:12:35.726Z,70.69
2018-02-24T07:13:16.304Z,70.31
2018-02-24T07:13:56.894Z,70.31
2018-02-24T07:14:37.544Z,70.12
2018-02-24T07:15:18.120Z,69.65
2018-02-24T07:15:58.712Z,68.61
2018-02-24T07:16:39.858Z,67.76
2018-02-24T07:17:20.406Z,67.85
2018-02-24T07:18:01.024Z,67.38
2018-02-24T07:18:41.554Z,66.72
2018-02-24T07:19:22.138Z,66.16
2018-02-24T07:20:02.706Z,65.78
2018-02-24T07:20:43.628Z,65.59
2018-02-24T07:21:24.177Z,65.68
2018-02-24T07:22:04.734Z,65.21
2018-02-24T07:22:45.364Z,64.54
2018-02-24T07:23:26.616Z,64.45
2018-02-24T07:24:07.470Z,64.45
2018-02-24T07:24:48.168Z,64.17
2018-02-24T07:25:29.195Z,63.89
2018-02-24T07:26:09.797Z,63.89
2018-02-24T07:26:50.416Z,63.98
2018-02-24T07:27:31.496Z,64.17
2018-02-24T07:28:12.234Z,64.17
2018-02-24T07:28:52.855Z,63.98
2018-02-24T07:29:33.434Z,63.42
2018-02-24T07:30:13.986Z,63.6
2018-02-24T07:30:54.727Z,62.85
2018-02-24T07:31:35.246Z,62.47
2018-02-24T07:32:15.847Z,61.99
2018-02-24T07:32:56.411Z,62.47
2018-02-24T07:33:36.969Z,62.56
2018-02-24T07:34:17.906Z,62.28
2018-02-24T07:34:58.625Z,62.59
2018-02-24T07:35:39.229Z,61.99
2018-02-24T07:36:19.837Z,61.9
2018-02-24T07:37:00.449Z,62.66
2018-02-24T07:37:41.027Z,62.47
2018-02-24T07:38:21.632Z,62.28
2018-02-24T07:39:02.196Z,61.71
2018-02-24T07:39:42.822Z,61.93
2018-02-24T07:40:23.383Z,61.74
2018-02-24T07:41:03.923Z,61.55
2018-02-24T07:41:44.484Z,61.05
2018-02-24T07:42:25.034Z,61.36
2018-02-24T07:43:05.713Z,61.74
2018-02-24T07:43:46.442Z,61.27
2018-02-24T07:44:27.006Z,61.08
2018-02-24T07:45:07.565Z,60.04
2018-02-24T07:45:48.248Z,59.76
2018-02-24T07:46:28.820Z,60.2
2018-02-24T07:47:09.434Z,59.82
2018-02-24T07:47:49.967Z,59.82
2018-02-24T07:48:30.529Z,59.54
2018-02-24T07:49:11.265Z,59.73
2018-02-24T07:49:51.883Z,59.63
2018-02-24T07:50:32.460Z,60.11
2018-02-24T07:51:13.027Z,59.73
2018-02-24T07:51:53.560Z,60.11
2018-02-24T07:52:34.117Z,60.11
2018-02-24T07:53:14.732Z,60.33
2018-02-24T07:53:55.307Z,59.92
2018-02-24T07:54:35.848Z,60.04
2018-02-24T07:55:16.604Z,59.47
2018-02-24T07:55:57.192Z,59.76
2018-02-24T07:56:37.741Z,59.38
2018-02-24T07:57:18.292Z,59.09
2018-02-24T07:57:58.889Z,58.81
2018-02-24T07:58:39.414Z,58.81
2018-02-24T07:59:19.960Z,58.44
2018-02-24T08:00:00.529Z,58.53
2018-02-24T08:00:41.103Z,58.25
2018-02-24T08:01:21.648Z,57.77
2018-02-24T08:02:02.221Z,57.58
2018-02-24T08:02:42.782Z,57.68
2018-02-24T08:03:23.323Z,56.73
2018-02-24T08:04:03.886Z,56.45
2018-02-24T08:04:44.435Z,56.26
2018-02-24T08:05:24.997Z,55.79
2018-02-24T08:06:05.562Z,55.41
2018-02-24T08:06:46.132Z,54.37
2018-02-24T08:07:26.679Z,54.46
2018-02-24T08:08:07.300Z,53.61
2018-02-24T08:08:47.849Z,53.45
2018-02-24T08:09:28.424Z,53.55
2018-02-24T08:10:09.000Z,52.88
2018-02-24T08:10:49.543Z,52.5
2018-02-24T08:11:30.134Z,51.56
2018-02-24T08:12:10.678Z,50.63
2018-02-24T08:12:51.251Z,50.54
2018-02-24T08:13:31.808Z,49.88
2018-02-24T08:14:12.382Z,49.69
2018-02-24T08:14:52.948Z,49.31
2018-02-24T08:15:33.482Z,48.77
2018-02-24T08:16:14.036Z,48.86
2018-02-24T08:16:54.614Z,48.29
2018-02-24T08:17:35.215Z,46.88
2018-02-24T08:18:15.777Z,45.29
2018-02-24T08:18:56.401Z,44.24
2018-02-24T08:19:36.968Z,43.68
2018-02-24T08:20:17.554Z,43.13
2018-02-24T08:20:58.097Z,42.66
2018-02-24T08:21:38.670Z,41.33
2018-02-24T08:22:19.232Z,40.66
2018-02-24T08:22:59.797Z,40.57
2018-02-24T08:23:40.364Z,39.9
2018-02-24T08:24:20.921Z,39.83
2018-02-24T08:25:01.497Z,38.89
2018-02-24T08:25:42.042Z,38.29
2018-02-24T08:26:22.585Z,38.1
2018-02-24T08:27:03.157Z,37.92
2018-02-24T08:27:43.793Z,38.2
2018-02-24T08:28:24.381Z,38.2
2018-02-24T08:29:04.953Z,38.18
2018-02-24T08:29:45.528Z,38.56
2018-02-24T08:30:26.078Z,39.7
2018-02-24T08:31:06.625Z,39.79
2018-02-24T08:31:47.190Z,40.15
2018-02-24T08:32:27.752Z,40.06
2018-02-24T08:33:08.341Z,40.72
2018-02-24T08:33:48.949Z,41.19
2018-02-24T08:34:29.553Z,41.38
2018-02-24T08:35:10.134Z,41.95
2018-02-24T08:35:50.735Z,42.71
2018-02-24T08:36:31.288Z,42.04
2018-02-24T08:37:11.847Z,41.76
2018-02-24T08:37:52.416Z,41.74
2018-02-24T08:38:33.009Z,41.83
2018-02-24T08:39:13.585Z,42.02
2018-02-24T08:39:54.206Z,42.21
2018-02-24T08:40:34.758Z,42.78
2018-02-24T08:41:15.355Z,43.16
2018-02-24T08:41:55.906Z,43.63
2018-02-24T08:42:36.516Z,43.63
2018-02-24T08:43:17.078Z,43.54
2018-02-24T08:43:57.660Z,43.18
2018-02-24T08:44:38.253Z,42.52
2018-02-24T08:45:18.816Z,41.95
2018-02-24T08:45:59.391Z,41.85
2018-02-24T08:46:39.975Z,41.85
2018-02-24T08:47:20.626Z,41.47
2018-02-24T08:48:01.224Z,41.28
2018-02-24T08:48:41.788Z,42.99